sensor_id;sensor_type;location;lat;lon;timestamp;pressure;altitude;pressure_sealevel;temperature;humidity
24762;BME280;12865;51.934;10.330;2023-09-18T00:00:12;98679.72;;;18.65;100.00
24762;BME280;12865;51.934;10.330;2023-09-18T00:02:58;98683.44;;;18.64;100.00
24762;BME280;12865;51.934;10.330;2023-09-18T00:05:48;98685.75;;;18.67;100.00
24762;BME280;12865;51.934;10.330;2023-09-18T00:08:34;98685.97;;;18.79;100.00
24762;BME280;12865;51.934;10.330;2023-09-18T00:11:19;98674.97;;;18.87;100.00
24762;BME280;12865;51.934;10.330;2023-09-18T00:14:05;98667.69;;;18.81;100.00
24762;BME280;12865;51.934;10.330;2023-09-18T00:16:51;98658.34;;;18.83;100.00
24762;BME280;12865;51.934;10.330;2023-09-18T00:19:37;98651.28;;;18.82;100.00
24762;BME280;12865;51.934;10.330;2023-09-18T00:22:23;98646.28;;;18.79;100.00
24762;BME280;12865;51.934;10.330;2023-09-18T00:25:10;98641.91;;;18.78;100.00
24762;BME280;12865;51.934;10.330;2023-09-18T00:27:55;98644.22;;;18.75;100.00
24762;BME280;12865;51.934;10.330;2023-09-18T00:30:48;98638.81;;;18.68;100.00
24762;BME280;12865;51.934;10.330;2023-09-18T00:33:35;98639.19;;;18.65;100.00
24762;BME280;12865;51.934;10.330;2023-09-18T00:36:21;98636.31;;;18.67;100.00
24762;BME280;12865;51.934;10.330;2023-09-18T00:39:06;98627.56;;;18.58;100.00
24762;BME280;12865;51.934;10.330;2023-09-18T00:41:52;98620.44;;;18.51;100.00
24762;BME280;12865;51.934;10.330;2023-09-18T00:44:40;98622.09;;;18.45;100.00
24762;BME280;12865;51.934;10.330;2023-09-18T00:47:26;98615.28;;;18.42;100.00
24762;BME280;12865;51.934;10.330;2023-09-18T00:50:13;98607.16;;;18.36;100.00
24762;BME280;12865;51.934;10.330;2023-09-18T00:53:00;98615.44;;;18.28;100.00
24762;BME280;12865;51.934;10.330;2023-09-18T00:55:47;98598.41;;;18.21;100.00
24762;BME280;12865;51.934;10.330;2023-09-18T00:58:33;98590.69;;;18.11;100.00
24762;BME280;12865;51.934;10.330;2023-09-18T01:01:19;98593.16;;;18.06;100.00
24762;BME280;12865;51.934;10.330;2023-09-18T01:04:08;98592.72;;;18.02;100.00
24762;BME280;12865;51.934;10.330;2023-09-18T01:06:55;98588.34;;;18.01;100.00
24762;BME280;12865;51.934;10.330;2023-09-18T01:09:42;98580.88;;;17.97;100.00
24762;BME280;12865;51.934;10.330;2023-09-18T01:12:37;98578.81;;;17.92;100.00
24762;BME280;12865;51.934;10.330;2023-09-18T01:15:33;98578.19;;;17.97;100.00
24762;BME280;12865;51.934;10.330;2023-09-18T01:18:21;98568.03;;;17.99;100.00
24762;BME280;12865;51.934;10.330;2023-09-18T01:21:06;98569.69;;;17.93;100.00
24762;BME280;12865;51.934;10.330;2023-09-18T01:23:52;98565.50;;;17.91;100.00
24762;BME280;12865;51.934;10.330;2023-09-18T01:26:38;98563.00;;;17.89;100.00
24762;BME280;12865;51.934;10.330;2023-09-18T01:29:23;98559.91;;;17.86;100.00
24762;BME280;12865;51.934;10.330;2023-09-18T01:32:09;98547.84;;;17.82;100.00
24762;BME280;12865;51.934;10.330;2023-09-18T01:34:56;98548.03;;;17.80;100.00
24762;BME280;12865;51.934;10.330;2023-09-18T01:37:43;98544.53;;;17.80;100.00
24762;BME280;12865;51.934;10.330;2023-09-18T01:40:30;98540.78;;;17.81;100.00
24762;BME280;12865;51.934;10.330;2023-09-18T01:43:16;98533.31;;;17.76;100.00
24762;BME280;12865;51.934;10.330;2023-09-18T01:46:02;98526.25;;;17.75;100.00
24762;BME280;12865;51.934;10.330;2023-09-18T01:48:48;98523.16;;;17.78;100.00
24762;BME280;12865;51.934;10.330;2023-09-18T01:51:34;98523.56;;;17.75;100.00
24762;BME280;12865;51.934;10.330;2023-09-18T01:54:20;98519.19;;;17.67;100.00
24762;BME280;12865;51.934;10.330;2023-09-18T01:57:05;98520.66;;;17.77;100.00
24762;BME280;12865;51.934;10.330;2023-09-18T01:59:52;98519.00;;;17.76;100.00
24762;BME280;12865;51.934;10.330;2023-09-18T02:02:38;98517.13;;;17.70;100.00
24762;BME280;12865;51.934;10.330;2023-09-18T02:05:24;98509.41;;;17.66;100.00
24762;BME280;12865;51.934;10.330;2023-09-18T02:08:09;98514.97;;;17.58;100.00
24762;BME280;12865;51.934;10.330;2023-09-18T02:10:55;98510.59;;;17.51;100.00
24762;BME280;12865;51.934;10.330;2023-09-18T02:13:41;98519.06;;;17.48;100.00
24762;BME280;12865;51.934;10.330;2023-09-18T02:16:27;98515.13;;;17.44;100.00
24762;BME280;12865;51.934;10.330;2023-09-18T02:19:13;98512.81;;;17.41;100.00
24762;BME280;12865;51.934;10.330;2023-09-18T02:21:59;98509.09;;;17.42;100.00
24762;BME280;12865;51.934;10.330;2023-09-18T02:24:45;98504.97;;;17.46;100.00
24762;BME280;12865;51.934;10.330;2023-09-18T02:27:30;98500.63;;;17.45;100.00
24762;BME280;12865;51.934;10.330;2023-09-18T02:30:16;98496.19;;;17.78;100.00
24762;BME280;12865;51.934;10.330;2023-09-18T02:33:04;98491.88;;;17.90;100.00
24762;BME280;12865;51.934;10.330;2023-09-18T02:35:50;98487.53;;;18.02;100.00
24762;BME280;12865;51.934;10.330;2023-09-18T02:38:36;98486.69;;;18.09;100.00
24762;BME280;12865;51.934;10.330;2023-09-18T02:41:21;98483.22;;;18.08;100.00
24762;BME280;12865;51.934;10.330;2023-09-18T02:44:07;98480.91;;;18.12;100.00
24762;BME280;12865;51.934;10.330;2023-09-18T02:46:53;98475.31;;;18.26;100.00
24762;BME280;12865;51.934;10.330;2023-09-18T02:49:38;98462.22;;;18.30;100.00
24762;BME280;12865;51.934;10.330;2023-09-18T02:52:24;98464.31;;;18.34;100.00
24762;BME280;12865;51.934;10.330;2023-09-18T02:55:10;98458.91;;;18.41;100.00
24762;BME280;12865;51.934;10.330;2023-09-18T02:57:56;98454.97;;;18.37;100.00
24762;BME280;12865;51.934;10.330;2023-09-18T03:00:42;98445.63;;;18.39;100.00
24762;BME280;12865;51.934;10.330;2023-09-18T03:03:31;98445.22;;;18.49;100.00
24762;BME280;12865;51.934;10.330;2023-09-18T03:06:17;98445.22;;;18.49;100.00
24762;BME280;12865;51.934;10.330;2023-09-18T03:09:02;98440.22;;;18.46;100.00
24762;BME280;12865;51.934;10.330;2023-09-18T03:11:48;98435.88;;;18.38;100.00
24762;BME280;12865;51.934;10.330;2023-09-18T03:14:34;98441.88;;;18.47;100.00
24762;BME280;12865;51.934;10.330;2023-09-18T03:17:20;98440.22;;;18.39;100.00
24762;BME280;12865;51.934;10.330;2023-09-18T03:20:06;98428.59;;;18.39;100.00
24762;BME280;12865;51.934;10.330;2023-09-18T03:22:54;98431.09;;;18.54;100.00
24762;BME280;12865;51.934;10.330;2023-09-18T03:25:40;98422.78;;;18.68;100.00
24762;BME280;12865;51.934;10.330;2023-09-18T03:28:26;98418.41;;;18.67;100.00
24762;BME280;12865;51.934;10.330;2023-09-18T03:31:11;98407.59;;;18.74;100.00
24762;BME280;12865;51.934;10.330;2023-09-18T03:33:57;98403.44;;;18.71;100.00
24762;BME280;12865;51.934;10.330;2023-09-18T03:36:43;98404.28;;;18.72;100.00
24762;BME280;12865;51.934;10.330;2023-09-18T03:39:28;98396.81;;;18.67;100.00
24762;BME280;12865;51.934;10.330;2023-09-18T03:42:14;98389.75;;;18.66;100.00
24762;BME280;12865;51.934;10.330;2023-09-18T03:45:00;98396.22;;;18.59;100.00
24762;BME280;12865;51.934;10.330;2023-09-18T03:47:45;98395.81;;;18.62;100.00
24762;BME280;12865;51.934;10.330;2023-09-18T03:50:31;98388.72;;;18.67;100.00
24762;BME280;12865;51.934;10.330;2023-09-18T03:53:17;98380.44;;;18.62;100.00
24762;BME280;12865;51.934;10.330;2023-09-18T03:56:03;98374.41;;;18.60;100.00
24762;BME280;12865;51.934;10.330;2023-09-18T03:58:49;98373.34;;;18.68;100.00
24762;BME280;12865;51.934;10.330;2023-09-18T04:01:35;98359.81;;;18.74;100.00
24762;BME280;12865;51.934;10.330;2023-09-18T04:04:20;98360.38;;;18.96;100.00
24762;BME280;12865;51.934;10.330;2023-09-18T04:07:06;98349.16;;;18.99;100.00
24762;BME280;12865;51.934;10.330;2023-09-18T04:09:52;98348.28;;;19.05;100.00
24762;BME280;12865;51.934;10.330;2023-09-18T04:12:38;98347.22;;;19.06;100.00
24762;BME280;12865;51.934;10.330;2023-09-18T04:15:24;98341.94;;;19.25;100.00
24762;BME280;12865;51.934;10.330;2023-09-18T04:18:10;98342.25;;;19.48;100.00
24762;BME280;12865;51.934;10.330;2023-09-18T04:20:55;98341.81;;;19.44;100.00
24762;BME280;12865;51.934;10.330;2023-09-18T04:23:41;98334.38;;;19.40;100.00
24762;BME280;12865;51.934;10.330;2023-09-18T04:26:27;98324.19;;;19.35;100.00
24762;BME280;12865;51.934;10.330;2023-09-18T04:29:17;98331.34;;;19.23;100.00
24762;BME280;12865;51.934;10.330;2023-09-18T04:32:03;98323.44;;;19.21;100.00
24762;BME280;12865;51.934;10.330;2023-09-18T04:34:49;98324.66;;;19.64;100.00
24762;BME280;12865;51.934;10.330;2023-09-18T04:37:37;98316.38;;;19.58;100.00
24762;BME280;12865;51.934;10.330;2023-09-18T04:40:23;98300.25;;;19.70;100.00
24762;BME280;12865;51.934;10.330;2023-09-18T04:43:09;98294.22;;;19.75;100.00
24762;BME280;12865;51.934;10.330;2023-09-18T04:45:55;98292.63;;;20.10;100.00
24762;BME280;12865;51.934;10.330;2023-09-18T04:48:41;98288.00;;;20.17;100.00
24762;BME280;12865;51.934;10.330;2023-09-18T04:51:26;98273.91;;;20.09;100.00
24762;BME280;12865;51.934;10.330;2023-09-18T04:54:12;98265.94;;;19.95;100.00
24762;BME280;12865;51.934;10.330;2023-09-18T04:56:58;98270.03;;;19.80;100.00
24762;BME280;12865;51.934;10.330;2023-09-18T04:59:44;98267.88;;;19.64;100.00
24762;BME280;12865;51.934;10.330;2023-09-18T05:02:29;98266.31;;;19.49;100.00
24762;BME280;12865;51.934;10.330;2023-09-18T05:05:15;98251.22;;;19.35;100.00
24762;BME280;12865;51.934;10.330;2023-09-18T05:08:02;98255.00;;;19.28;100.00
24762;BME280;12865;51.934;10.330;2023-09-18T05:10:52;98250.13;;;19.18;100.00
24762;BME280;12865;51.934;10.330;2023-09-18T05:13:38;98242.69;;;19.07;100.00
24762;BME280;12865;51.934;10.330;2023-09-18T05:16:24;98250.25;;;18.98;100.00
24762;BME280;12865;51.934;10.330;2023-09-18T05:19:09;98248.00;;;18.89;100.00
24762;BME280;12865;51.934;10.330;2023-09-18T05:21:56;98246.38;;;18.81;100.00
24762;BME280;12865;51.934;10.330;2023-09-18T05:24:41;98262.16;;;18.84;100.00
24762;BME280;12865;51.934;10.330;2023-09-18T05:27:27;98262.25;;;19.02;100.00
24762;BME280;12865;51.934;10.330;2023-09-18T05:30:19;98263.66;;;19.11;100.00
24762;BME280;12865;51.934;10.330;2023-09-18T05:33:07;98261.66;;;19.32;100.00
24762;BME280;12865;51.934;10.330;2023-09-18T05:35:53;98260.63;;;19.57;100.00
24762;BME280;12865;51.934;10.330;2023-09-18T05:38:39;98261.47;;;19.83;100.00
24762;BME280;12865;51.934;10.330;2023-09-18T05:41:25;98257.03;;;20.31;100.00
24762;BME280;12865;51.934;10.330;2023-09-18T05:44:11;98261.78;;;21.02;100.00
24762;BME280;12865;51.934;10.330;2023-09-18T05:46:57;98256.00;;;21.40;100.00
24762;BME280;12865;51.934;10.330;2023-09-18T05:49:43;98245.09;;;21.70;100.00
24762;BME280;12865;51.934;10.330;2023-09-18T05:52:29;98246.53;;;21.84;99.85
24762;BME280;12865;51.934;10.330;2023-09-18T05:55:15;98242.66;;;22.04;99.79
24762;BME280;12865;51.934;10.330;2023-09-18T05:58:01;98247.47;;;22.25;97.34
24762;BME280;12865;51.934;10.330;2023-09-18T06:00:48;98238.47;;;22.36;94.50
24762;BME280;12865;51.934;10.330;2023-09-18T06:03:35;98245.41;;;22.44;94.94
24762;BME280;12865;51.934;10.330;2023-09-18T06:06:21;98239.28;;;22.48;94.63
24762;BME280;12865;51.934;10.330;2023-09-18T06:09:07;98231.13;;;22.48;94.36
24762;BME280;12865;51.934;10.330;2023-09-18T06:11:52;98236.06;;;22.51;94.90
24762;BME280;12865;51.934;10.330;2023-09-18T06:14:38;98213.22;;;22.76;91.25
24762;BME280;12865;51.934;10.330;2023-09-18T06:17:24;98215.47;;;22.67;93.02
24762;BME280;12865;51.934;10.330;2023-09-18T06:20:11;98213.63;;;22.56;94.51
24762;BME280;12865;51.934;10.330;2023-09-18T06:22:58;98201.00;;;22.50;94.77
24762;BME280;12865;51.934;10.330;2023-09-18T06:25:43;98191.50;;;22.64;92.78
24762;BME280;12865;51.934;10.330;2023-09-18T06:28:29;98185.72;;;22.60;92.75
24762;BME280;12865;51.934;10.330;2023-09-18T06:31:15;98176.06;;;22.53;93.84
24762;BME280;12865;51.934;10.330;2023-09-18T06:34:01;98169.72;;;22.47;94.90
24762;BME280;12865;51.934;10.330;2023-09-18T06:36:47;98174.03;;;22.60;94.11
24762;BME280;12865;51.934;10.330;2023-09-18T06:39:33;98167.25;;;22.46;96.73
24762;BME280;12865;51.934;10.330;2023-09-18T06:42:19;98160.16;;;22.45;96.32
24762;BME280;12865;51.934;10.330;2023-09-18T06:45:06;98142.47;;;22.42;96.13
24762;BME280;12865;51.934;10.330;2023-09-18T06:47:52;98129.44;;;22.44;94.69
24762;BME280;12865;51.934;10.330;2023-09-18T06:50:38;98128.00;;;22.53;92.85
24762;BME280;12865;51.934;10.330;2023-09-18T06:53:25;98131.47;;;22.65;92.18
24762;BME280;12865;51.934;10.330;2023-09-18T06:56:11;98138.81;;;22.65;92.82
24762;BME280;12865;51.934;10.330;2023-09-18T06:58:58;98147.22;;;22.63;91.92
24762;BME280;12865;51.934;10.330;2023-09-18T07:01:43;98152.75;;;22.68;91.04
24762;BME280;12865;51.934;10.330;2023-09-18T07:04:29;98149.50;;;22.83;87.86
24762;BME280;12865;51.934;10.330;2023-09-18T07:07:15;98153.06;;;22.84;88.91
24762;BME280;12865;51.934;10.330;2023-09-18T07:10:01;98146.78;;;22.83;89.99
24762;BME280;12865;51.934;10.330;2023-09-18T07:12:46;98136.41;;;22.80;90.44
24762;BME280;12865;51.934;10.330;2023-09-18T07:15:32;98135.53;;;22.91;89.51
24762;BME280;12865;51.934;10.330;2023-09-18T07:18:18;98148.28;;;22.91;88.44
24762;BME280;12865;51.934;10.330;2023-09-18T07:21:03;98135.75;;;23.06;85.94
24762;BME280;12865;51.934;10.330;2023-09-18T07:23:49;98147.56;;;23.12;84.82
24762;BME280;12865;51.934;10.330;2023-09-18T07:26:35;98139.16;;;23.14;86.22
24762;BME280;12865;51.934;10.330;2023-09-18T07:29:21;98138.25;;;23.25;83.97
24762;BME280;12865;51.934;10.330;2023-09-18T07:32:07;98150.94;;;23.36;83.29
24762;BME280;12865;51.934;10.330;2023-09-18T07:34:54;98151.09;;;23.46;83.47
24762;BME280;12865;51.934;10.330;2023-09-18T07:37:41;98147.06;;;23.48;82.35
24762;BME280;12865;51.934;10.330;2023-09-18T07:40:26;98134.56;;;23.47;82.70
24762;BME280;12865;51.934;10.330;2023-09-18T07:43:13;98138.09;;;23.48;82.60
24762;BME280;12865;51.934;10.330;2023-09-18T07:45:58;98135.13;;;23.49;82.27
24762;BME280;12865;51.934;10.330;2023-09-18T07:48:45;98147.19;;;23.54;82.15
24762;BME280;12865;51.934;10.330;2023-09-18T07:51:30;98125.91;;;23.51;83.17
24762;BME280;12865;51.934;10.330;2023-09-18T07:54:16;98143.28;;;23.49;82.85
24762;BME280;12865;51.934;10.330;2023-09-18T07:57:02;98117.06;;;23.43;83.52
24762;BME280;12865;51.934;10.330;2023-09-18T07:59:48;98144.84;;;23.45;83.94
24762;BME280;12865;51.934;10.330;2023-09-18T08:02:34;98148.28;;;23.41;84.43
24762;BME280;12865;51.934;10.330;2023-09-18T08:05:20;98145.19;;;23.32;85.39
24762;BME280;12865;51.934;10.330;2023-09-18T08:08:06;98138.09;;;23.31;85.60
24762;BME280;12865;51.934;10.330;2023-09-18T08:10:52;98155.06;;;23.22;85.94
24762;BME280;12865;51.934;10.330;2023-09-18T08:13:38;98155.41;;;23.25;86.81
24762;BME280;12865;51.934;10.330;2023-09-18T08:16:24;98155.06;;;23.22;86.46
24762;BME280;12865;51.934;10.330;2023-09-18T08:19:09;98151.13;;;23.13;86.99
24762;BME280;12865;51.934;10.330;2023-09-18T08:21:59;98157.03;;;23.09;87.72
24762;BME280;12865;51.934;10.330;2023-09-18T08:24:49;98157.63;;;23.12;87.07
24762;BME280;12865;51.934;10.330;2023-09-18T08:27:39;98154.06;;;23.11;87.50
24762;BME280;12865;51.934;10.330;2023-09-18T08:30:27;98149.78;;;23.15;87.28
24762;BME280;12865;51.934;10.330;2023-09-18T08:33:13;98139.91;;;23.09;87.33
24762;BME280;12865;51.934;10.330;2023-09-18T08:35:59;98152.50;;;23.15;88.55
24762;BME280;12865;51.934;10.330;2023-09-18T08:38:45;98142.22;;;23.17;87.33
24762;BME280;12865;51.934;10.330;2023-09-18T08:41:34;98154.63;;;23.13;88.61
24762;BME280;12865;51.934;10.330;2023-09-18T08:44:26;98151.19;;;23.18;87.88
24762;BME280;12865;51.934;10.330;2023-09-18T08:47:13;98146.47;;;23.13;86.78
24762;BME280;12865;51.934;10.330;2023-09-18T08:50:00;98148.78;;;23.21;86.38
24762;BME280;12865;51.934;10.330;2023-09-18T08:52:48;98166.09;;;23.15;89.24
24762;BME280;12865;51.934;10.330;2023-09-18T08:55:34;98165.19;;;23.09;89.29
24762;BME280;12865;51.934;10.330;2023-09-18T08:58:20;98156.69;;;23.06;90.73
24762;BME280;12865;51.934;10.330;2023-09-18T09:01:09;98179.63;;;23.10;91.40
24762;BME280;12865;51.934;10.330;2023-09-18T09:03:57;98178.34;;;23.01;91.20
24762;BME280;12865;51.934;10.330;2023-09-18T09:06:43;98172.03;;;23.12;90.83
24762;BME280;12865;51.934;10.330;2023-09-18T09:09:29;98182.72;;;23.02;89.82
24762;BME280;12865;51.934;10.330;2023-09-18T09:12:45;98167.47;;;23.01;89.89
24762;BME280;12865;51.934;10.330;2023-09-18T09:15:44;98182.50;;;23.03;90.06
24762;BME280;12865;51.934;10.330;2023-09-18T09:18:31;98180.50;;;22.99;90.69
24762;BME280;12865;51.934;10.330;2023-09-18T09:21:18;98175.88;;;22.99;90.77
24762;BME280;12865;51.934;10.330;2023-09-18T09:24:04;98168.16;;;22.91;90.74
24762;BME280;12865;51.934;10.330;2023-09-18T09:27:00;98163.13;;;23.00;91.24
24762;BME280;12865;51.934;10.330;2023-09-18T09:29:58;98155.69;;;22.95;91.13
24762;BME280;12865;51.934;10.330;2023-09-18T09:32:47;98162.31;;;23.16;91.30
24762;BME280;12865;51.934;10.330;2023-09-18T09:35:34;98155.88;;;23.22;89.45
24762;BME280;12865;51.934;10.330;2023-09-18T09:38:20;98157.97;;;23.32;90.28
24762;BME280;12865;51.934;10.330;2023-09-18T09:41:15;98157.53;;;23.40;89.48
24762;BME280;12865;51.934;10.330;2023-09-18T09:44:04;98160.00;;;23.41;87.53
24762;BME280;12865;51.934;10.330;2023-09-18T09:46:50;98144.84;;;23.45;87.77
24762;BME280;12865;51.934;10.330;2023-09-18T09:49:47;98152.88;;;23.52;87.62
24762;BME280;12865;51.934;10.330;2023-09-18T09:52:33;98153.09;;;23.51;87.58
24762;BME280;12865;51.934;10.330;2023-09-18T09:55:23;98157.25;;;23.53;87.74
24762;BME280;12865;51.934;10.330;2023-09-18T09:58:11;98156.78;;;23.44;88.56
24762;BME280;12865;51.934;10.330;2023-09-18T10:00:58;98160.81;;;23.42;87.97
24762;BME280;12865;51.934;10.330;2023-09-18T10:03:48;98161.50;;;23.32;89.53
24762;BME280;12865;51.934;10.330;2023-09-18T10:06:34;98147.91;;;23.32;89.70
24762;BME280;12865;51.934;10.330;2023-09-18T10:09:21;98166.53;;;23.24;90.97
24762;BME280;12865;51.934;10.330;2023-09-18T10:12:11;98158.00;;;23.20;90.34
24762;BME280;12865;51.934;10.330;2023-09-18T10:14:57;98174.09;;;23.22;91.24
24762;BME280;12865;51.934;10.330;2023-09-18T10:17:44;98176.09;;;23.26;92.10
24762;BME280;12865;51.934;10.330;2023-09-18T10:20:31;98173.44;;;23.31;91.72
24762;BME280;12865;51.934;10.330;2023-09-18T10:23:54;98199.34;;;23.34;92.39
24762;BME280;12865;51.934;10.330;2023-09-18T10:26:58;98194.63;;;23.29;93.04
24762;BME280;12865;51.934;10.330;2023-09-18T10:29:48;98191.19;;;23.34;91.81
24762;BME280;12865;51.934;10.330;2023-09-18T10:32:35;98199.97;;;23.24;92.27
24762;BME280;12865;51.934;10.330;2023-09-18T10:35:21;98196.69;;;23.22;92.05
24762;BME280;12865;51.934;10.330;2023-09-18T10:38:07;98192.72;;;23.30;91.21
24762;BME280;12865;51.934;10.330;2023-09-18T10:40:53;98199.59;;;23.32;91.91
24762;BME280;12865;51.934;10.330;2023-09-18T10:43:41;98196.63;;;23.34;90.19
24762;BME280;12865;51.934;10.330;2023-09-18T10:46:27;98199.81;;;23.31;89.11
24762;BME280;12865;51.934;10.330;2023-09-18T10:49:14;98204.13;;;23.27;89.45
24762;BME280;12865;51.934;10.330;2023-09-18T10:52:00;98211.53;;;23.31;91.31
24762;BME280;12865;51.934;10.330;2023-09-18T10:54:46;98204.28;;;23.37;89.63
24762;BME280;12865;51.934;10.330;2023-09-18T10:57:35;98211.03;;;23.34;89.65
24762;BME280;12865;51.934;10.330;2023-09-18T11:00:24;98211.44;;;23.26;90.64
24762;BME280;12865;51.934;10.330;2023-09-18T11:03:13;98224.47;;;23.24;89.02
24762;BME280;12865;51.934;10.330;2023-09-18T11:06:08;98242.78;;;23.45;89.45
24762;BME280;12865;51.934;10.330;2023-09-18T11:09:04;98240.22;;;23.39;88.06
24762;BME280;12865;51.934;10.330;2023-09-18T11:11:52;98236.31;;;23.35;87.77
24762;BME280;12865;51.934;10.330;2023-09-18T11:17:36;98247.63;;;23.43;87.27
24762;BME280;12865;51.934;10.330;2023-09-18T11:20:26;98240.75;;;23.53;88.39
24762;BME280;12865;51.934;10.330;2023-09-18T11:25:58;98252.13;;;23.49;88.53
24762;BME280;12865;51.934;10.330;2023-09-18T11:28:51;98248.88;;;23.36;88.68
24762;BME280;12865;51.934;10.330;2023-09-18T11:34:30;98264.19;;;23.25;88.85
24762;BME280;12865;51.934;10.330;2023-09-18T11:37:25;98263.69;;;23.28;89.00
24762;BME280;12865;51.934;10.330;2023-09-18T11:40:30;98254.47;;;23.29;89.85
24762;BME280;12865;51.934;10.330;2023-09-18T11:43:28;98237.66;;;23.32;88.90
24762;BME280;12865;51.934;10.330;2023-09-18T11:46:21;98252.59;;;23.46;88.52
24762;BME280;12865;51.934;10.330;2023-09-18T11:49:07;98250.88;;;23.40;89.12
24762;BME280;12865;51.934;10.330;2023-09-18T11:51:58;98254.53;;;23.34;89.64
24762;BME280;12865;51.934;10.330;2023-09-18T11:54:44;98274.25;;;23.41;89.83
24762;BME280;12865;51.934;10.330;2023-09-18T11:57:35;98272.66;;;23.57;88.81
24762;BME280;12865;51.934;10.330;2023-09-18T12:00:21;98262.00;;;23.56;89.14
24762;BME280;12865;51.934;10.330;2023-09-18T12:03:19;98250.97;;;23.62;88.36
24762;BME280;12865;51.934;10.330;2023-09-18T12:06:11;98246.59;;;23.78;87.47
24762;BME280;12865;51.934;10.330;2023-09-18T12:09:03;98233.88;;;23.83;87.04
24762;BME280;12865;51.934;10.330;2023-09-18T12:11:51;98239.22;;;24.12;86.39
24762;BME280;12865;51.934;10.330;2023-09-18T12:14:39;98246.91;;;24.32;85.22
24762;BME280;12865;51.934;10.330;2023-09-18T12:17:27;98239.97;;;24.67;85.75
24762;BME280;12865;51.934;10.330;2023-09-18T12:20:16;98247.66;;;25.19;83.42
24762;BME280;12865;51.934;10.330;2023-09-18T12:23:04;98259.59;;;25.40;80.13
24762;BME280;12865;51.934;10.330;2023-09-18T12:25:57;98268.75;;;25.56;80.54
24762;BME280;12865;51.934;10.330;2023-09-18T12:28:44;98273.06;;;24.76;80.46
24762;BME280;12865;51.934;10.330;2023-09-18T12:31:31;98275.78;;;24.76;80.77
24762;BME280;12865;51.934;10.330;2023-09-18T12:34:21;98265.47;;;24.78;82.46
24762;BME280;12865;51.934;10.330;2023-09-18T12:37:08;98248.72;;;24.70;83.34
24762;BME280;12865;51.934;10.330;2023-09-18T12:39:56;98237.84;;;24.91;81.97
24762;BME280;12865;51.934;10.330;2023-09-18T12:42:42;98231.50;;;25.13;80.71
24762;BME280;12865;51.934;10.330;2023-09-18T12:45:28;98242.34;;;25.29;80.65
24762;BME280;12865;51.934;10.330;2023-09-18T12:48:15;98216.81;;;25.46;78.38
24762;BME280;12865;51.934;10.330;2023-09-18T12:51:05;98217.59;;;25.41;79.75
24762;BME280;12865;51.934;10.330;2023-09-18T12:53:59;98240.47;;;25.62;76.77
24762;BME280;12865;51.934;10.330;2023-09-18T12:56:45;98252.84;;;25.48;77.09
24762;BME280;12865;51.934;10.330;2023-09-18T12:59:32;98254.56;;;25.27;76.48
24762;BME280;12865;51.934;10.330;2023-09-18T13:02:18;98251.03;;;24.99;77.89
24762;BME280;12865;51.934;10.330;2023-09-18T13:05:06;98263.59;;;25.00;80.18
24762;BME280;12865;51.934;10.330;2023-09-18T13:07:53;98271.03;;;25.10;81.10
24762;BME280;12865;51.934;10.330;2023-09-18T13:10:47;98269.25;;;25.21;79.25
24762;BME280;12865;51.934;10.330;2023-09-18T13:13:35;98260.56;;;25.56;78.12
24762;BME280;12865;51.934;10.330;2023-09-18T13:16:22;98241.44;;;25.24;80.12
24762;BME280;12865;51.934;10.330;2023-09-18T13:19:08;98246.84;;;25.19;81.25
24762;BME280;12865;51.934;10.330;2023-09-18T13:21:53;98266.41;;;25.11;81.51
24762;BME280;12865;51.934;10.330;2023-09-18T13:24:39;98265.91;;;25.14;79.29
24762;BME280;12865;51.934;10.330;2023-09-18T13:27:25;98274.25;;;25.02;80.02
24762;BME280;12865;51.934;10.330;2023-09-18T13:30:11;98274.53;;;25.06;81.54
24762;BME280;12865;51.934;10.330;2023-09-18T13:33:07;98275.50;;;24.73;81.87
24762;BME280;12865;51.934;10.330;2023-09-18T13:35:53;98275.75;;;24.71;82.60
24762;BME280;12865;51.934;10.330;2023-09-18T13:38:39;98287.47;;;24.50;81.58
24762;BME280;12865;51.934;10.330;2023-09-18T13:41:25;98277.03;;;24.47;82.24
24762;BME280;12865;51.934;10.330;2023-09-18T13:44:11;98283.50;;;24.41;84.62
24762;BME280;12865;51.934;10.330;2023-09-18T13:46:57;98282.56;;;23.97;84.49
24762;BME280;12865;51.934;10.330;2023-09-18T13:49:42;98272.81;;;24.01;84.62
24762;BME280;12865;51.934;10.330;2023-09-18T13:52:29;98276.19;;;23.91;86.13
24762;BME280;12865;51.934;10.330;2023-09-18T13:55:15;98281.31;;;23.71;86.55
24762;BME280;12865;51.934;10.330;2023-09-18T13:58:01;98287.84;;;23.70;87.62
24762;BME280;12865;51.934;10.330;2023-09-18T14:00:49;98281.41;;;23.59;87.80
24762;BME280;12865;51.934;10.330;2023-09-18T14:03:35;98273.91;;;23.66;87.48
24762;BME280;12865;51.934;10.330;2023-09-18T14:06:21;98273.81;;;23.78;87.40
24762;BME280;12865;51.934;10.330;2023-09-18T14:09:06;98274.88;;;23.77;86.95
24762;BME280;12865;51.934;10.330;2023-09-18T14:11:52;98279.25;;;23.78;87.48
24762;BME280;12865;51.934;10.330;2023-09-18T14:14:37;98285.25;;;23.46;88.43
24762;BME280;12865;51.934;10.330;2023-09-18T14:17:26;98287.16;;;23.63;87.62
24762;BME280;12865;51.934;10.330;2023-09-18T14:20:11;98290.44;;;23.48;88.76
24762;BME280;12865;51.934;10.330;2023-09-18T14:22:57;98280.00;;;23.57;87.55
24762;BME280;12865;51.934;10.330;2023-09-18T14:25:43;98281.16;;;23.61;87.06
24762;BME280;12865;51.934;10.330;2023-09-18T14:28:28;98287.19;;;23.34;88.16
24762;BME280;12865;51.934;10.330;2023-09-18T14:31:14;98288.44;;;23.43;88.08
24762;BME280;12865;51.934;10.330;2023-09-18T14:34:00;98274.09;;;23.31;87.32
24762;BME280;12865;51.934;10.330;2023-09-18T14:36:46;98269.31;;;23.38;86.48